Xiang Tong 9 — 9LU2569 — position and weather

sailwx.info

Track history (hours):
 
Tides and Currents Weather Stations Pressure Air Temp Water Temp Dewpoint Dewpoint Depression Visibility Wind Speed Wind Dir Waves Ship Positions

Xiang Tong 9

Last reported at 2018-Jul-09 04:06 UTC. Time now 2018-Jul-22 01:14 UTC.
Position N 34°27' E 134°27'.
Warning: this ship's position is 12 days out of date.

Length 95 m; draft 6.1 m.

Type: Cargo ship. MMSI: 667001766.

Date/timePositionNaut miles runAvg speedWind from/ knotsBaromVisibWave heightAir tempDewpointWater temp
2018-Jul-09 04:06N 34°27' E 134°27'1 8.4
2018-Jul-09 03:58N 34°27' E 134°29'4 8.2
2018-Jul-09 03:30N 34°29' E 134°33'5 8.2
2018-Jul-09 02:55N 34°30' E 134°38'5 7.9
2018-Jul-09 02:20N 34°32' E 134°43'5 7.3
2018-Jul-09 01:41N 34°34' E 134°49'1 6.7
2018-Jul-09 01:30N 34°34' E 134°50'9 5.9
2018-Jul-08 23:54N 34°37' E 135°01'2 5.6
2018-Jul-08 23:30N 34°36' E 135°03'3 6.6
2018-Jul-08 23:00N 34°33' E 135°05'4 8.2
2018-Jul-08 22:30N 34°29' E 135°04'4 7.5
2018-Jul-08 22:00N 34°26' E 135°02'4 7.5
2018-Jul-08 21:30N 34°22' E 135°01'4 8.2
2018-Jul-08 21:00N 34°18' E 134°60'4 8.0
2018-Jul-08 20:30N 34°14' E 134°59'4 7.6
2018-Jul-08 20:00N 34°10' E 134°60'4 8.4
2018-Jul-08 19:30N 34°06' E 134°59'4 8.0
2018-Jul-08 18:58N 34°02' E 134°59'5 8.0
2018-Jul-08 18:24N 33°57' E 134°59'8 8.0
2018-Jul-08 17:25N 33°50' E 135°01'227 6.3
2018-Jul-07 05:31N 34°55' E 139°24'4 5.1
2018-Jul-07 04:47N 34°57' E 139°27'1 5.0
2018-Jul-07 04:30N 34°58' E 139°29'3 4.9
2018-Jul-07 03:59N 34°60' E 139°31'2 5.2
2018-Jul-07 03:30N 35°01' E 139°34'3 5.8
2018-Jul-07 03:00N 35°03' E 139°36'3 7.0
2018-Jul-07 02:30N 35°05' E 139°40'4 7.2
2018-Jul-07 02:00N 35°07' E 139°43'4 7.5
2018-Jul-07 01:30N 35°10' E 139°45'4 7.5
2018-Jul-07 01:00N 35°14' E 139°46'4 7.4
2018-Jul-07 00:30N 35°17' E 139°45'4 7.6
2018-Jul-07 00:00N 35°21' E 139°42'4 7.5
2018-Jul-06 23:30N 35°25' E 139°43'4 8.1
2018-Jul-06 23:00N 35°27' E 139°47'4 7.9
2018-Jul-06 22:30N 35°30' E 139°51'  
2018-Jul-02 06:53N 35°40' E 139°59'4 0.1
2018-Jul-01 01:24N 35°36' E 139°58'4 8.3
2018-Jul-01 00:52N 35°32' E 139°56'3 9.2
2018-Jul-01 00:29N 35°29' E 139°53'4 9.3
2018-Jul-01 00:00N 35°26' E 139°49'4 8.8
2018-Jun-30 23:31N 35°23' E 139°46'4 8.7
2018-Jun-30 23:01N 35°19' E 139°44'5 8.6
2018-Jun-30 22:29N 35°15' E 139°47'4 9.2
2018-Jun-30 22:00N 35°10' E 139°46'5 9.6
2018-Jun-30 21:30N 35°06' E 139°45'5 9.7
2018-Jun-30 21:00N 35°01' E 139°44'  
Track history (hours):
 
Tides and Currents Weather Stations Pressure Air Temp Water Temp Dewpoint Dewpoint Depression Visibility Wind Speed Wind Dir Waves Ship Positions

Xiang Tong 9

Last reported at 2018-Jul-09 04:06 UTC. Time now 2018-Jul-22 01:14 UTC.
Position N 34°27' E 134°27'.
Warning: this ship's position is 12 days out of date.

Length 95 m; draft 6.1 m.

Type: Cargo ship. MMSI: 667001766.

Date/timePositionNaut miles runAvg speedWind from/ knotsBaromVisibWave heightAir tempDewpointWater temp
2018-Jul-09 04:06N 34°27' E 134°27'1 8.4
2018-Jul-09 03:58N 34°27' E 134°29'4 8.2
2018-Jul-09 03:30N 34°29' E 134°33'5 8.2
2018-Jul-09 02:55N 34°30' E 134°38'5 7.9
2018-Jul-09 02:20N 34°32' E 134°43'5 7.3
2018-Jul-09 01:41N 34°34' E 134°49'1 6.7
2018-Jul-09 01:30N 34°34' E 134°50'9 5.9
2018-Jul-08 23:54N 34°37' E 135°01'2 5.6
2018-Jul-08 23:30N 34°36' E 135°03'3 6.6
2018-Jul-08 23:00N 34°33' E 135°05'4 8.2
2018-Jul-08 22:30N 34°29' E 135°04'4 7.5
2018-Jul-08 22:00N 34°26' E 135°02'4 7.5
2018-Jul-08 21:30N 34°22' E 135°01'4 8.2
2018-Jul-08 21:00N 34°18' E 134°60'4 8.0
2018-Jul-08 20:30N 34°14' E 134°59'4 7.6
2018-Jul-08 20:00N 34°10' E 134°60'4 8.4
2018-Jul-08 19:30N 34°06' E 134°59'4 8.0
2018-Jul-08 18:58N 34°02' E 134°59'5 8.0
2018-Jul-08 18:24N 33°57' E 134°59'8 8.0
2018-Jul-08 17:25N 33°50' E 135°01'227 6.3
2018-Jul-07 05:31N 34°55' E 139°24'4 5.1
2018-Jul-07 04:47N 34°57' E 139°27'1 5.0
2018-Jul-07 04:30N 34°58' E 139°29'3 4.9
2018-Jul-07 03:59N 34°60' E 139°31'2 5.2
2018-Jul-07 03:30N 35°01' E 139°34'3 5.8
2018-Jul-07 03:00N 35°03' E 139°36'3 7.0
2018-Jul-07 02:30N 35°05' E 139°40'4 7.2
2018-Jul-07 02:00N 35°07' E 139°43'4 7.5
2018-Jul-07 01:30N 35°10' E 139°45'4 7.5
2018-Jul-07 01:00N 35°14' E 139°46'4 7.4
2018-Jul-07 00:30N 35°17' E 139°45'4 7.6
2018-Jul-07 00:00N 35°21' E 139°42'4 7.5
2018-Jul-06 23:30N 35°25' E 139°43'4 8.1
2018-Jul-06 23:00N 35°27' E 139°47'4 7.9
2018-Jul-06 22:30N 35°30' E 139°51'  
2018-Jul-02 06:53N 35°40' E 139°59'4 0.1
2018-Jul-01 01:24N 35°36' E 139°58'4 8.3
2018-Jul-01 00:52N 35°32' E 139°56'3 9.2
2018-Jul-01 00:29N 35°29' E 139°53'4 9.3
2018-Jul-01 00:00N 35°26' E 139°49'4 8.8
2018-Jun-30 23:31N 35°23' E 139°46'4 8.7
2018-Jun-30 23:01N 35°19' E 139°44'5 8.6
2018-Jun-30 22:29N 35°15' E 139°47'4 9.2
2018-Jun-30 22:00N 35°10' E 139°46'5 9.6
2018-Jun-30 21:30N 35°06' E 139°45'5 9.7
2018-Jun-30 21:00N 35°01' E 139°44'  

Dump ship's entire track history